createdAt,value
2019-06-27T00:01:34.184Z,101856.55
2019-06-27T00:03:36.345Z,101859.71
2019-06-27T00:05:37.755Z,101868.09
2019-06-27T00:07:39.106Z,101873.33
2019-06-27T00:09:40.470Z,101877.51
2019-06-27T00:11:41.861Z,101873.47
2019-06-27T00:13:43.225Z,101872.11
2019-06-27T00:15:44.632Z,101873.98
2019-06-27T00:17:46.042Z,101871.13
2019-06-27T00:19:47.414Z,101874.42
2019-06-27T00:21:48.867Z,101874.09
2019-06-27T00:23:50.249Z,101881.41
2019-06-27T00:25:51.638Z,101879.26
2019-06-27T00:27:53.002Z,101887.51
2019-06-27T00:29:54.415Z,101881.97
2019-06-27T00:31:55.774Z,101888.56
2019-06-27T00:33:57.738Z,101894.22
2019-06-27T00:35:59.151Z,101897.69
2019-06-27T00:38:00.520Z,101902.88
2019-06-27T00:40:04.618Z,101904.23
2019-06-27T00:42:05.978Z,101904.70
2019-06-27T00:44:07.340Z,101906.22
2019-06-27T00:46:08.740Z,101902.55
2019-06-27T00:48:10.103Z,101917.31
2019-06-27T00:50:12.949Z,101912.14
2019-06-27T00:52:14.355Z,101914.85
2019-06-27T00:54:15.774Z,101918.35
2019-06-27T00:56:17.198Z,101928.41
2019-06-27T00:58:18.669Z,101927.95
2019-06-27T01:00:20.026Z,101926.24
2019-06-27T01:02:21.814Z,101929.63
2019-06-27T01:04:23.315Z,101928.95
2019-06-27T01:06:24.762Z,101925.30
2019-06-27T01:08:26.147Z,101927.45
2019-06-27T01:10:27.556Z,101928.63
2019-06-27T01:12:28.929Z,101933.45
2019-06-27T01:14:30.293Z,101934.87
2019-06-27T01:16:31.893Z,101935.01
2019-06-27T01:18:33.271Z,101932.91
2019-06-27T01:20:34.695Z,101936.23
2019-06-27T01:22:36.042Z,101936.91
2019-06-27T01:24:37.410Z,101937.95
2019-06-27T01:26:38.828Z,101937.90
2019-06-27T01:28:40.284Z,101933.92
2019-06-27T01:30:41.648Z,101936.22
2019-06-27T01:32:43.059Z,101940.53
2019-06-27T01:34:44.423Z,101945.40
2019-06-27T01:36:45.805Z,101945.45
2019-06-27T01:38:47.197Z,101944.91
2019-06-27T01:40:48.657Z,101944.45
2019-06-27T01:42:50.073Z,101946.93
2019-06-27T01:44:53.432Z,101949.42
2019-06-27T01:46:54.794Z,101950.84
2019-06-27T01:48:56.152Z,101956.28
2019-06-27T01:50:57.537Z,101957.72
2019-06-27T01:52:58.896Z,101961.36
2019-06-27T01:55:00.254Z,101963.09
2019-06-27T01:57:01.651Z,101973.52
2019-06-27T01:59:03.016Z,101973.06
2019-06-27T02:01:04.414Z,101970.43
2019-06-27T02:03:06.013Z,101966.47
2019-06-27T02:05:07.606Z,101973.47
2019-06-27T02:07:09.083Z,101969.77
2019-06-27T02:09:10.444Z,101974.34
2019-06-27T02:11:11.837Z,101975.44
2019-06-27T02:13:13.222Z,101973.56
2019-06-27T02:15:15.576Z,101978.94
2019-06-27T02:17:17.090Z,101974.31
2019-06-27T02:19:18.497Z,101972.47
2019-06-27T02:21:19.841Z,101979.78
2019-06-27T02:23:21.206Z,101975.47
2019-06-27T02:25:22.898Z,101983.76
2019-06-27T02:27:24.254Z,101983.63
2019-06-27T02:29:25.650Z,101980.22
2019-06-27T02:31:27.085Z,101979.99
2019-06-27T02:33:28.476Z,101981.12
2019-06-27T02:35:29.865Z,101984.40
2019-06-27T02:37:31.305Z,101991.42
2019-06-27T02:39:32.695Z,101990.28
2019-06-27T02:41:34.243Z,101992.82
2019-06-27T02:43:35.672Z,101991.55
2019-06-27T02:45:37.069Z,101988.82
2019-06-27T02:47:38.457Z,101992.89
2019-06-27T02:49:39.962Z,101987.08
2019-06-27T02:51:41.371Z,101990.36
2019-06-27T02:53:42.748Z,101991.95
2019-06-27T02:55:44.190Z,101997.24
2019-06-27T02:57:45.581Z,102000.95
2019-06-27T02:59:47.006Z,102005.38
2019-06-27T03:01:48.502Z,102000.41
2019-06-27T03:03:49.934Z,102002.66
2019-06-27T03:05:51.420Z,102009.75
2019-06-27T03:07:52.814Z,102004.80
2019-06-27T03:09:54.251Z,102008.06
2019-06-27T03:11:59.944Z,102011.40
2019-06-27T03:13:58.947Z,102016.65
2019-06-27T03:16:00.479Z,102010.16
2019-06-27T03:18:01.871Z,102014.27
2019-06-27T03:20:06.989Z,102015.89
2019-06-27T03:22:08.373Z,102011.52
2019-06-27T03:24:09.811Z,102018.34
2019-06-27T03:26:11.199Z,102015.55
2019-06-27T03:28:12.587Z,102017.52
2019-06-27T03:30:14.318Z,102020.66
2019-06-27T03:32:15.712Z,102028.93
2019-06-27T03:34:17.245Z,102029.26
2019-06-27T03:36:18.665Z,102028.01
2019-06-27T03:38:20.260Z,102026.63
2019-06-27T03:40:21.798Z,102026.25
2019-06-27T03:42:23.270Z,102030.55
2019-06-27T03:44:24.656Z,102025.22
2019-06-27T03:46:26.102Z,102030.37
2019-06-27T03:48:27.588Z,102033.70
2019-06-27T03:50:28.991Z,102034.88
2019-06-27T03:52:30.438Z,102039.58
2019-06-27T03:54:31.820Z,102041.77
2019-06-27T03:56:33.229Z,102038.26
2019-06-27T03:58:34.646Z,102049.68
2019-06-27T04:00:36.785Z,102046.33
2019-06-27T04:02:38.742Z,102043.45
2019-06-27T04:04:40.665Z,102043.69
2019-06-27T04:06:42.381Z,102044.44
2019-06-27T04:08:44.872Z,102042.23
2019-06-27T04:10:47.600Z,102045.39
2019-06-27T04:12:49.401Z,102041.88
2019-06-27T04:14:51.140Z,102042.36
2019-06-27T04:16:52.819Z,102049.25
2019-06-27T04:18:54.515Z,102048.46
2019-06-27T04:20:56.329Z,102049.05
2019-06-27T04:22:58.048Z,102052.97
2019-06-27T04:24:59.890Z,102057.09
2019-06-27T04:27:01.768Z,102056.74
2019-06-27T04:29:03.602Z,102059.50
2019-06-27T04:31:05.393Z,102060.85
2019-06-27T04:33:07.225Z,102062.03
2019-06-27T04:35:09.407Z,102054.61
2019-06-27T04:37:11.285Z,102059.31
2019-06-27T04:39:13.032Z,102060.77
2019-06-27T04:41:14.818Z,102063.44
2019-06-27T04:43:16.670Z,102066.09
2019-06-27T04:45:18.487Z,102063.45
2019-06-27T04:47:20.333Z,102064.19
2019-06-27T04:49:22.201Z,102077.84
2019-06-27T04:51:24.052Z,102069.02
2019-06-27T04:53:25.838Z,102070.56
2019-06-27T04:55:27.560Z,102069.59
2019-06-27T04:57:30.078Z,102067.33
2019-06-27T04:59:48.106Z,102067.34
2019-06-27T05:01:35.563Z,102061.98
2019-06-27T05:03:37.381Z,102072.89
2019-06-27T05:05:39.075Z,102064.30
2019-06-27T05:07:41.005Z,102068.85
2019-06-27T05:09:42.802Z,102066.30
2019-06-27T05:11:44.636Z,102064.37
2019-06-27T05:13:46.459Z,102068.21
2019-06-27T05:15:48.194Z,102070.41
2019-06-27T05:17:49.893Z,102070.95
2019-06-27T05:19:51.675Z,102073.55
2019-06-27T05:21:53.499Z,102071.72
2019-06-27T05:23:55.311Z,102073.02
2019-06-27T05:25:57.043Z,102069.17
2019-06-27T05:27:58.853Z,102078.80
2019-06-27T05:30:09.517Z,102072.38
2019-06-27T05:32:04.408Z,102070.46
2019-06-27T05:34:06.131Z,102071.77
2019-06-27T05:36:07.522Z,102070.78
2019-06-27T05:38:09.016Z,102067.49
2019-06-27T05:40:10.935Z,102069.73
2019-06-27T05:42:12.335Z,102070.84
2019-06-27T05:44:13.805Z,102066.91
2019-06-27T05:46:15.362Z,102067.70
2019-06-27T05:48:16.882Z,102070.63
2019-06-27T05:50:18.378Z,102068.89
2019-06-27T05:52:19.776Z,102068.30
2019-06-27T05:54:21.165Z,102071.89
2019-06-27T05:56:22.581Z,102072.02
2019-06-27T05:58:23.996Z,102067.72
2019-06-27T06:00:28.972Z,102069.73
2019-06-27T06:02:28.811Z,102071.09
2019-06-27T06:04:30.202Z,102070.73
2019-06-27T06:06:31.594Z,102065.27
2019-06-27T06:08:33.014Z,102066.27
2019-06-27T06:10:34.442Z,102063.67
2019-06-27T06:12:35.898Z,102068.38
2019-06-27T06:14:37.297Z,102069.67
2019-06-27T06:16:38.682Z,102068.66
2019-06-27T06:18:40.115Z,102064.95
2019-06-27T06:20:41.504Z,102072.48
2019-06-27T06:22:42.885Z,102071.44
2019-06-27T06:24:44.329Z,102067.66
2019-06-27T06:26:45.775Z,102070.52
2019-06-27T06:28:47.192Z,102070.73
2019-06-27T06:30:48.640Z,102067.59
2019-06-27T06:32:50.165Z,102065.11
2019-06-27T06:34:51.586Z,102065.05
2019-06-27T06:36:52.976Z,102061.11
2019-06-27T06:38:54.413Z,102065.47
2019-06-27T06:41:09.494Z,102066.15
2019-06-27T06:43:10.917Z,102060.53
2019-06-27T06:45:13.143Z,102064.95
2019-06-27T06:47:14.651Z,102066.75
2019-06-27T06:49:16.043Z,102068.98
2019-06-27T06:51:17.466Z,102071.83
2019-06-27T06:53:18.838Z,102069.34
2019-06-27T06:55:20.276Z,102066.38
2019-06-27T06:57:21.661Z,102066.34
2019-06-27T06:59:23.057Z,102074.03
2019-06-27T07:01:24.469Z,102072.80
2019-06-27T07:03:25.856Z,102065.00
2019-06-27T07:05:27.244Z,102063.47
2019-06-27T07:07:28.767Z,102063.36
2019-06-27T07:09:30.162Z,102059.45
2019-06-27T07:11:31.543Z,102059.53
2019-06-27T07:13:33.059Z,102061.01
2019-06-27T07:15:34.488Z,102060.36
2019-06-27T07:17:36.008Z,102067.27
2019-06-27T07:19:37.446Z,102061.77
2019-06-27T07:21:38.848Z,102066.04
2019-06-27T07:23:40.281Z,102064.20
2019-06-27T07:25:42.031Z,102065.80
2019-06-27T07:27:43.496Z,102062.69
2019-06-27T07:29:44.978Z,102061.74
2019-06-27T07:31:46.374Z,102066.59
2019-06-27T07:33:47.789Z,102057.27
2019-06-27T07:35:49.203Z,102059.59
2019-06-27T07:37:50.722Z,102065.91
2019-06-27T07:39:52.195Z,102067.87
2019-06-27T07:41:53.677Z,102062.56
2019-06-27T07:43:55.218Z,102059.47
2019-06-27T07:45:56.668Z,102060.79
2019-06-27T07:47:58.089Z,102058.73
2019-06-27T07:49:59.514Z,102065.73
2019-06-27T07:52:00.884Z,102070.63
2019-06-27T07:54:02.276Z,102065.86
2019-06-27T07:56:03.696Z,102056.05
2019-06-27T07:58:05.225Z,102060.17
2019-06-27T08:00:08.440Z,102057.65
2019-06-27T08:02:09.886Z,102063.87
2019-06-27T08:04:11.261Z,102061.53
2019-06-27T08:06:12.677Z,102059.95
2019-06-27T08:08:14.182Z,102058.83
2019-06-27T08:10:15.976Z,102055.36
2019-06-27T08:12:17.534Z,102054.34
2019-06-27T08:14:19.009Z,102056.83
2019-06-27T08:16:20.407Z,102048.70
2019-06-27T08:18:21.873Z,102060.22
2019-06-27T08:20:23.329Z,102057.49
2019-06-27T08:22:24.721Z,102050.25
2019-06-27T08:24:26.114Z,102053.02
2019-06-27T08:26:27.743Z,102048.97
2019-06-27T08:28:29.142Z,102059.34
2019-06-27T08:30:30.593Z,102049.11
2019-06-27T08:32:31.993Z,102050.75
2019-06-27T08:34:33.649Z,102043.06
2019-06-27T08:36:35.122Z,102056.39
2019-06-27T08:38:36.554Z,102045.85
2019-06-27T08:40:37.973Z,102039.75
2019-06-27T08:42:39.399Z,102052.74
2019-06-27T08:44:40.821Z,102043.41
2019-06-27T08:46:42.218Z,102042.09
2019-06-27T08:48:43.697Z,102041.95
2019-06-27T08:50:45.252Z,102039.48
2019-06-27T08:52:46.637Z,102038.82
2019-06-27T08:54:48.073Z,102034.59
2019-06-27T08:56:49.467Z,102034.40
2019-06-27T08:58:50.862Z,102029.34
2019-06-27T09:00:52.280Z,102024.38
2019-06-27T09:02:53.723Z,102025.86
2019-06-27T09:04:55.140Z,102018.23
2019-06-27T09:06:56.576Z,102024.17
2019-06-27T09:08:57.963Z,102020.05
2019-06-27T09:10:59.388Z,102025.80
2019-06-27T09:13:00.779Z,102022.34
2019-06-27T09:15:06.206Z,102022.30
2019-06-27T09:17:08.435Z,102016.36
2019-06-27T09:19:09.864Z,102019.08
2019-06-27T09:21:11.524Z,102026.36
2019-06-27T09:23:12.967Z,102016.23
2019-06-27T09:25:14.392Z,102027.98
2019-06-27T09:27:16.742Z,102008.59
2019-06-27T09:29:18.224Z,102008.56
2019-06-27T09:31:19.642Z,102009.07
2019-06-27T09:33:21.069Z,102007.06
2019-06-27T09:35:22.462Z,102007.27
2019-06-27T09:37:23.905Z,102006.23
2019-06-27T09:39:27.065Z,102007.69
2019-06-27T09:41:28.603Z,102010.00
2019-06-27T09:43:30.012Z,102000.55
2019-06-27T09:45:31.598Z,102000.52
2019-06-27T09:47:33.021Z,102004.59
2019-06-27T09:49:34.403Z,102000.70
2019-06-27T09:51:35.789Z,102003.03
2019-06-27T09:53:37.242Z,101994.52
2019-06-27T09:55:38.687Z,101995.48
2019-06-27T09:57:40.127Z,102000.83
2019-06-27T09:59:41.633Z,101996.78
2019-06-27T10:01:43.182Z,101999.45
2019-06-27T10:03:44.565Z,102000.45
2019-06-27T10:05:45.971Z,101996.19
2019-06-27T10:07:47.404Z,101998.83
2019-06-27T10:09:48.805Z,101991.27
2019-06-27T10:11:53.304Z,101992.39
2019-06-27T10:13:53.518Z,101994.89
2019-06-27T10:15:54.934Z,101993.03
2019-06-27T10:17:56.348Z,101982.61
2019-06-27T10:19:57.730Z,101996.42
2019-06-27T10:21:59.229Z,101991.11
2019-06-27T10:24:00.678Z,101998.56
2019-06-27T10:26:02.112Z,101990.70
2019-06-27T10:28:03.541Z,101984.39
2019-06-27T10:30:06.350Z,101988.52
2019-06-27T10:32:07.805Z,101985.97
2019-06-27T10:34:09.207Z,101986.39
2019-06-27T10:36:10.634Z,101984.58
2019-06-27T10:38:12.025Z,101977.25
2019-06-27T10:40:13.822Z,101988.67
2019-06-27T10:42:15.260Z,101988.62
2019-06-27T10:44:16.651Z,101988.16
2019-06-27T10:46:18.055Z,101986.70
2019-06-27T10:48:19.475Z,101991.69
2019-06-27T10:50:20.894Z,101989.73
2019-06-27T10:52:22.300Z,101990.69
2019-06-27T10:54:23.690Z,101983.24
2019-06-27T10:56:25.126Z,101975.74
2019-06-27T10:58:26.551Z,101968.66
2019-06-27T11:00:27.998Z,101980.01
2019-06-27T11:02:29.482Z,101979.24
2019-06-27T11:04:30.878Z,101975.16
2019-06-27T11:06:32.317Z,101978.98
2019-06-27T11:08:33.701Z,101973.90
2019-06-27T11:10:35.084Z,101973.17
2019-06-27T11:12:36.500Z,101962.98
2019-06-27T11:14:37.871Z,101965.33
2019-06-27T11:16:39.264Z,101961.71
2019-06-27T11:18:40.743Z,101959.06
2019-06-27T11:20:42.117Z,101959.92
2019-06-27T11:22:43.645Z,101955.48
2019-06-27T11:24:45.053Z,101953.98
2019-06-27T11:26:47.139Z,101952.99
2019-06-27T11:28:49.341Z,101951.55
2019-06-27T11:30:50.770Z,101958.81
2019-06-27T11:32:52.179Z,101952.42
2019-06-27T11:34:53.730Z,101949.41
2019-06-27T11:36:55.127Z,101953.34
2019-06-27T11:38:56.631Z,101950.65
2019-06-27T11:40:58.059Z,101942.77
2019-06-27T11:42:59.492Z,101949.78
2019-06-27T11:45:00.901Z,101941.87
2019-06-27T11:47:02.349Z,101938.00
2019-06-27T11:49:03.788Z,101929.34
2019-06-27T11:51:05.218Z,101931.01
2019-06-27T11:53:06.603Z,101929.47
2019-06-27T11:55:08.198Z,101931.42
2019-06-27T11:57:09.611Z,101931.19
2019-06-27T11:59:11.003Z,101930.42
2019-06-27T12:01:12.444Z,101928.33
2019-06-27T12:03:13.845Z,101920.92
2019-06-27T12:05:15.418Z,101917.11
2019-06-27T12:07:16.864Z,101913.95
2019-06-27T12:09:18.244Z,101919.50
2019-06-27T12:11:19.634Z,101919.06
2019-06-27T12:13:21.176Z,101918.41
2019-06-27T12:15:22.606Z,101915.69
2019-06-27T12:17:24.018Z,101909.53
2019-06-27T12:19:25.455Z,101904.72
2019-06-27T12:21:26.913Z,101906.44
2019-06-27T12:23:28.318Z,101901.34
2019-06-27T12:25:29.754Z,101905.92
2019-06-27T12:27:31.393Z,101904.87
2019-06-27T12:29:32.805Z,101901.67
2019-06-27T12:31:34.180Z,101897.82
2019-06-27T12:33:35.672Z,101897.38
2019-06-27T12:35:37.206Z,101896.98
2019-06-27T12:37:39.848Z,101893.16
2019-06-27T12:39:41.525Z,101895.91
2019-06-27T12:41:42.928Z,101892.10
2019-06-27T12:43:44.313Z,101888.36
2019-06-27T12:45:45.705Z,101881.67
2019-06-27T12:47:47.141Z,101876.18
2019-06-27T12:50:01.193Z,101880.25
2019-06-27T12:51:51.822Z,101878.63
2019-06-27T12:53:55.662Z,101878.30
2019-06-27T12:55:56.841Z,101872.77
2019-06-27T12:57:58.228Z,101870.11
2019-06-27T12:59:59.630Z,101862.73
2019-06-27T13:02:01.074Z,101861.61
2019-06-27T13:04:02.449Z,101866.78
2019-06-27T13:06:03.849Z,101854.93
2019-06-27T13:08:05.289Z,101858.93
2019-06-27T13:10:07.147Z,101855.96
2019-06-27T13:12:08.546Z,101843.70
2019-06-27T13:14:09.944Z,101843.23
2019-06-27T13:16:11.378Z,101850.55
2019-06-27T13:18:12.830Z,101846.73
2019-06-27T13:20:14.565Z,101847.09
2019-06-27T13:22:16.024Z,101848.28
2019-06-27T13:24:17.529Z,101841.91
2019-06-27T13:26:19.027Z,101844.95
2019-06-27T13:28:20.482Z,101839.78
2019-06-27T13:30:22.012Z,101836.42
2019-06-27T13:32:25.434Z,101846.36
2019-06-27T13:34:39.957Z,101839.67
2019-06-27T13:36:33.031Z,101837.53
2019-06-27T13:38:33.395Z,101836.77
2019-06-27T13:40:35.026Z,101835.11
2019-06-27T13:42:38.420Z,101828.59
2019-06-27T13:44:39.735Z,101826.58
2019-06-27T13:46:41.296Z,101827.17
2019-06-27T13:48:42.973Z,101825.04
2019-06-27T13:50:44.366Z,101821.52
2019-06-27T13:52:45.909Z,101820.84
2019-06-27T13:54:47.302Z,101827.50
2019-06-27T13:56:48.782Z,101822.69
2019-06-27T13:58:50.311Z,101822.31
2019-06-27T14:00:51.739Z,101819.16
2019-06-27T14:02:53.153Z,101822.98
2019-06-27T14:04:57.472Z,101820.62
2019-06-27T14:06:57.862Z,101810.91
2019-06-27T14:08:59.288Z,101813.94
2019-06-27T14:11:00.670Z,101809.51
2019-06-27T14:13:02.206Z,101814.48
2019-06-27T14:15:07.580Z,101818.70
2019-06-27T14:17:08.968Z,101813.84
2019-06-27T14:19:10.395Z,101805.33
2019-06-27T14:21:11.982Z,101810.23
2019-06-27T14:23:13.343Z,101805.05
2019-06-27T14:25:15.040Z,101807.30
2019-06-27T14:27:16.463Z,101801.64
2019-06-27T14:29:17.897Z,101790.99
2019-06-27T14:31:19.289Z,101796.83
2019-06-27T14:33:20.686Z,101801.46
2019-06-27T14:35:22.153Z,101802.09
2019-06-27T14:37:23.534Z,101790.14
2019-06-27T14:39:24.960Z,101796.41
2019-06-27T14:41:26.381Z,101805.09
2019-06-27T14:43:27.794Z,101792.85
2019-06-27T14:45:29.253Z,101793.84
2019-06-27T14:47:30.651Z,101797.24
2019-06-27T14:49:32.026Z,101796.86
2019-06-27T14:51:33.467Z,101789.77
2019-06-27T14:53:34.991Z,101792.29
2019-06-27T14:55:36.501Z,101788.94
2019-06-27T14:57:38.033Z,101788.07
2019-06-27T14:59:39.600Z,101785.11
2019-06-27T15:01:41.044Z,101780.36
2019-06-27T15:03:42.496Z,101782.35
2019-06-27T15:05:44.012Z,101783.93
2019-06-27T15:07:45.420Z,101782.08
2019-06-27T15:09:46.871Z,101776.70
2019-06-27T15:11:48.262Z,101779.72
2019-06-27T15:13:49.652Z,101782.92
2019-06-27T15:15:51.068Z,101784.75
2019-06-27T15:17:52.509Z,101782.84
2019-06-27T15:19:53.939Z,101778.45
2019-06-27T15:21:55.407Z,101776.30
2019-06-27T15:23:56.809Z,101770.11
2019-06-27T15:25:58.209Z,101757.39
2019-06-27T15:27:59.747Z,101763.51
2019-06-27T15:30:01.222Z,101773.66
2019-06-27T15:32:02.799Z,101768.48
2019-06-27T15:34:04.202Z,101768.46
2019-06-27T15:36:05.722Z,101767.47
2019-06-27T15:38:07.102Z,101766.92
2019-06-27T15:40:08.945Z,101773.34
2019-06-27T15:42:10.408Z,101773.11
2019-06-27T15:44:11.805Z,101777.33
2019-06-27T15:46:13.264Z,101768.84
2019-06-27T15:48:14.699Z,101765.41
2019-06-27T15:50:16.086Z,101769.75
2019-06-27T15:52:17.498Z,101764.72
2019-06-27T15:54:19.024Z,101763.69
2019-06-27T15:56:20.523Z,101761.98
2019-06-27T15:58:22.002Z,101754.34
2019-06-27T16:00:23.638Z,101759.75
2019-06-27T16:02:25.266Z,101758.91
2019-06-27T16:04:33.845Z,101764.30
2019-06-27T16:06:30.174Z,101759.64
2019-06-27T16:08:31.919Z,101762.17
2019-06-27T16:10:33.447Z,101758.51
2019-06-27T16:12:36.256Z,101764.48
2019-06-27T16:14:37.698Z,101759.41
2019-06-27T16:16:39.085Z,101765.96
2019-06-27T16:18:41.064Z,101767.23
2019-06-27T16:20:42.647Z,101760.61
2019-06-27T16:22:44.153Z,101758.95
2019-06-27T16:24:45.605Z,101770.40
2019-06-27T16:26:47.085Z,101764.56
2019-06-27T16:28:48.596Z,101764.41
2019-06-27T16:30:50.026Z,101758.10
2019-06-27T16:32:51.387Z,101759.72
2019-06-27T16:34:52.818Z,101769.98
2019-06-27T16:36:54.258Z,101769.05
2019-06-27T16:38:55.639Z,101769.59
2019-06-27T16:40:57.044Z,101768.11
2019-06-27T16:42:58.483Z,101766.05
2019-06-27T16:44:59.873Z,101770.34
2019-06-27T16:47:01.337Z,101769.22
2019-06-27T16:49:02.805Z,101770.61
2019-06-27T16:51:04.272Z,101771.34
2019-06-27T16:53:05.705Z,101766.10
2019-06-27T16:55:07.352Z,101780.94
2019-06-27T16:57:08.780Z,101772.21
2019-06-27T16:59:10.232Z,101778.90
2019-06-27T17:01:11.650Z,101773.31
2019-06-27T17:03:13.042Z,101782.32
2019-06-27T17:05:14.656Z,101777.42
2019-06-27T17:07:16.036Z,101781.32
2019-06-27T17:09:17.452Z,101785.59
2019-06-27T17:11:18.930Z,101782.91
2019-06-27T17:13:20.317Z,101785.80
2019-06-27T17:15:21.721Z,101795.79
2019-06-27T17:17:23.266Z,101790.58
2019-06-27T17:19:24.865Z,101789.27
2019-06-27T17:21:26.273Z,101787.33
2019-06-27T17:23:27.686Z,101787.22
2019-06-27T17:25:29.114Z,101793.22
2019-06-27T17:27:30.504Z,101794.34
2019-06-27T17:29:32.028Z,101797.16
2019-06-27T17:31:33.423Z,101803.58
2019-06-27T17:33:34.840Z,101802.94
2019-06-27T17:35:36.245Z,101803.16
2019-06-27T17:37:37.626Z,101803.23
2019-06-27T17:39:39.048Z,101809.39
2019-06-27T17:41:40.486Z,101813.45
2019-06-27T17:43:41.913Z,101814.72
2019-06-27T17:45:43.306Z,101814.20
2019-06-27T17:47:44.735Z,101821.35
2019-06-27T17:49:49.079Z,101820.45
2019-06-27T17:51:49.447Z,101811.56
2019-06-27T17:53:50.866Z,101809.47
2019-06-27T17:55:54.174Z,101807.01
2019-06-27T17:57:55.625Z,101809.13
2019-06-27T17:59:57.040Z,101816.70
2019-06-27T18:01:58.643Z,101817.11
2019-06-27T18:04:00.505Z,101818.72
2019-06-27T18:06:01.972Z,101815.78
2019-06-27T18:08:03.447Z,101822.45
2019-06-27T18:10:05.455Z,101824.66
2019-06-27T18:12:06.855Z,101825.33
2019-06-27T18:14:08.314Z,101820.48
2019-06-27T18:16:09.745Z,101820.30
2019-06-27T18:18:11.147Z,101824.19
2019-06-27T18:20:12.856Z,101825.00
2019-06-27T18:22:15.381Z,101823.18
2019-06-27T18:24:16.838Z,101830.94
2019-06-27T18:26:19.462Z,101832.19
2019-06-27T18:28:20.896Z,101836.73
2019-06-27T18:30:22.413Z,101835.71
2019-06-27T18:32:23.816Z,101841.14
2019-06-27T18:34:25.247Z,101839.49
2019-06-27T18:36:26.625Z,101842.12
2019-06-27T18:38:28.011Z,101846.81
2019-06-27T18:40:29.459Z,101843.31
2019-06-27T18:42:30.904Z,101847.73
2019-06-27T18:44:32.271Z,101850.92
2019-06-27T18:46:33.806Z,101851.59
2019-06-27T18:48:35.275Z,101856.78
2019-06-27T18:50:36.690Z,101858.86
2019-06-27T18:52:38.103Z,101859.09
2019-06-27T18:54:39.481Z,101854.42
2019-06-27T18:56:40.873Z,101862.84
2019-06-27T18:58:42.299Z,101864.13
2019-06-27T19:00:43.684Z,101871.05
2019-06-27T19:02:45.142Z,101871.17
2019-06-27T19:04:46.559Z,101874.02
2019-06-27T19:06:47.944Z,101873.52
2019-06-27T19:08:49.331Z,101868.45
2019-06-27T19:10:50.748Z,101873.20
2019-06-27T19:12:52.136Z,101876.67
2019-06-27T19:14:53.551Z,101875.80
2019-06-27T19:16:54.972Z,101872.86
2019-06-27T19:18:58.300Z,101877.89
2019-06-27T19:21:01.670Z,101881.91
2019-06-27T19:23:10.890Z,101877.95
2019-06-27T19:25:14.162Z,101890.41
2019-06-27T19:27:15.541Z,101895.23
2019-06-27T19:29:16.949Z,101891.81
2019-06-27T19:31:18.461Z,101898.58
2019-06-27T19:33:19.931Z,101902.17
2019-06-27T19:35:21.396Z,101910.50
2019-06-27T19:37:22.880Z,101913.04
2019-06-27T19:39:24.259Z,101913.95
2019-06-27T19:41:25.643Z,101919.06
2019-06-27T19:43:28.392Z,101926.12
2019-06-27T19:45:29.989Z,101931.80
2019-06-27T19:47:31.385Z,101933.15
2019-06-27T19:49:32.830Z,101931.41
2019-06-27T19:51:34.367Z,101942.05
2019-06-27T19:53:35.750Z,101941.46
2019-06-27T19:55:37.666Z,101944.47
2019-06-27T19:57:39.200Z,101945.14
2019-06-27T19:59:40.594Z,101946.81
2019-06-27T20:01:41.980Z,101946.30
2019-06-27T20:03:43.401Z,101947.89
2019-06-27T20:05:44.832Z,101953.45
2019-06-27T20:07:46.367Z,101954.25
2019-06-27T20:09:47.728Z,101950.77
2019-06-27T20:11:49.141Z,101955.38
2019-06-27T20:13:50.604Z,101971.06
2019-06-27T20:15:52.031Z,101969.27
2019-06-27T20:17:53.415Z,101971.30
2019-06-27T20:19:54.806Z,101972.43
2019-06-27T20:21:56.241Z,101974.08
2019-06-27T20:23:57.639Z,101973.91
2019-06-27T20:25:59.024Z,101972.73
2019-06-27T20:28:00.447Z,101973.40
2019-06-27T20:30:02.451Z,101972.90
2019-06-27T20:32:03.842Z,101972.89
2019-06-27T20:34:05.272Z,101979.02
2019-06-27T20:36:06.637Z,101980.81
2019-06-27T20:38:08.087Z,101977.50
2019-06-27T20:40:10.800Z,101982.97
2019-06-27T20:42:12.290Z,101982.38
2019-06-27T20:44:13.757Z,101979.50
2019-06-27T20:46:15.138Z,101982.03
2019-06-27T20:48:16.558Z,101984.50
2019-06-27T20:50:18.583Z,101991.48
2019-06-27T20:52:20.011Z,101994.72
2019-06-27T20:54:21.409Z,101994.84
2019-06-27T20:56:22.776Z,101997.38
2019-06-27T20:58:24.189Z,101995.59
2019-06-27T21:00:25.692Z,101999.84
2019-06-27T21:02:27.182Z,102000.81
2019-06-27T21:04:28.591Z,102000.08
2019-06-27T21:06:29.972Z,102007.13
2019-06-27T21:08:31.351Z,102009.88
2019-06-27T21:10:32.859Z,102006.42
2019-06-27T21:12:34.241Z,102007.64
2019-06-27T21:14:35.663Z,102012.00
2019-06-27T21:16:37.043Z,102014.88
2019-06-27T21:18:38.431Z,102013.58
2019-06-27T21:20:39.860Z,102016.27
2019-06-27T21:22:41.275Z,102014.56
2019-06-27T21:24:42.752Z,102013.70
2019-06-27T21:26:44.126Z,102023.23
2019-06-27T21:28:45.557Z,102025.29
2019-06-27T21:30:46.951Z,102030.75
2019-06-27T21:32:48.720Z,102033.34
2019-06-27T21:34:50.297Z,102031.89
2019-06-27T21:36:51.699Z,102033.37
2019-06-27T21:39:06.673Z,102040.59
2019-06-27T21:40:56.496Z,102038.89
2019-06-27T21:42:57.894Z,102040.98
2019-06-27T21:44:59.324Z,102037.75
2019-06-27T21:47:00.738Z,102046.03
2019-06-27T21:49:02.139Z,102045.48
2019-06-27T21:51:03.640Z,102041.95
2019-06-27T21:53:06.979Z,102044.81
2019-06-27T21:55:08.470Z,102046.17
2019-06-27T21:57:09.876Z,102045.43
2019-06-27T21:59:11.362Z,102048.27
2019-06-27T22:01:12.977Z,102046.31
2019-06-27T22:03:14.808Z,102045.92
2019-06-27T22:05:16.597Z,102047.84
2019-06-27T22:07:18.079Z,102054.09
2019-06-27T22:09:25.064Z,102057.89
2019-06-27T22:11:22.812Z,102055.08
2019-06-27T22:13:24.199Z,102057.48
2019-06-27T22:15:25.655Z,102052.61
2019-06-27T22:17:27.173Z,102058.03
2019-06-27T22:19:28.594Z,102054.75
2019-06-27T22:21:29.989Z,102049.73
2019-06-27T22:23:31.507Z,102048.09
2019-06-27T22:25:40.534Z,102043.07
2019-06-27T22:27:36.208Z,102046.23
2019-06-27T22:29:37.603Z,102047.63
2019-06-27T22:31:39.002Z,102050.06
2019-06-27T22:33:40.390Z,102050.02
2019-06-27T22:35:41.812Z,102052.41
2019-06-27T22:38:02.023Z,102047.70
2019-06-27T22:40:26.123Z,102051.98
2019-06-27T22:42:46.442Z,102052.98
2019-06-27T22:45:06.260Z,102055.93
2019-06-27T22:47:26.029Z,102057.61
2019-06-27T22:49:27.315Z,102063.34
2019-06-27T22:51:40.119Z,102061.06
2019-06-27T22:53:46.018Z,102063.21
2019-06-27T22:55:47.516Z,102059.32
2019-06-27T22:57:48.938Z,102056.84
2019-06-27T22:59:50.313Z,102061.96
2019-06-27T23:01:51.754Z,102059.82
2019-06-27T23:03:53.129Z,102054.17
2019-06-27T23:05:54.574Z,102059.55
2019-06-27T23:07:55.982Z,102057.59
2019-06-27T23:09:57.713Z,102064.59